createdAt,value
2019-04-25T00:02:29.224Z,10.50
2019-04-25T00:07:33.443Z,10.00
2019-04-25T00:12:37.949Z,9.80
2019-04-25T00:17:44.417Z,10.40
2019-04-25T00:22:54.049Z,11.75
2019-04-25T00:27:58.127Z,12.25
2019-04-25T00:33:02.194Z,9.80
2019-04-25T00:38:06.181Z,8.40
2019-04-25T00:43:11.415Z,10.20
2019-04-25T00:48:15.520Z,8.00
2019-04-25T00:53:21.145Z,8.80
2019-04-25T00:58:37.975Z,9.20
2019-04-25T01:03:44.130Z,6.50
2019-04-25T01:08:48.572Z,11.25
2019-04-25T01:13:53.352Z,11.00
2019-04-25T01:18:57.493Z,8.00
2019-04-25T01:24:01.684Z,9.00
2019-04-25T01:29:06.668Z,8.80
2019-04-25T01:34:14.145Z,10.00
2019-04-25T01:39:36.426Z,8.40
2019-04-25T01:44:44.105Z,8.75
2019-04-25T01:49:48.866Z,8.50
2019-04-25T01:54:54.701Z,9.00
2019-04-25T01:59:58.854Z,8.25
2019-04-25T02:05:05.102Z,8.00
2019-04-25T02:10:09.967Z,9.40
2019-04-25T02:15:15.779Z,9.00
2019-04-25T02:20:20.152Z,7.00
2019-04-25T02:25:24.622Z,7.80
2019-04-25T02:30:28.784Z,6.25
2019-04-25T02:35:34.944Z,6.00
2019-04-25T02:40:38.810Z,8.25
2019-04-25T02:46:15.166Z,7.50
2019-04-25T02:51:27.309Z,8.80
2019-04-25T02:56:35.802Z,9.60
2019-04-25T03:01:37.223Z,7.00
2019-04-25T03:06:41.410Z,5.20
2019-04-25T03:11:47.591Z,8.00
2019-04-25T03:16:51.455Z,5.60
2019-04-25T03:21:56.926Z,5.75
2019-04-25T03:27:01.085Z,5.00
2019-04-25T03:32:09.828Z,7.75
2019-04-25T03:37:11.521Z,3.25
2019-04-25T03:42:15.590Z,5.00
2019-04-25T03:47:19.690Z,6.00
2019-04-25T03:52:23.986Z,5.00
2019-04-25T03:57:28.048Z,4.00
2019-04-25T04:02:32.081Z,4.00
2019-04-25T04:07:36.099Z,5.40
2019-04-25T04:12:40.108Z,4.00
2019-04-25T04:18:05.105Z,5.50
2019-04-25T04:23:19.857Z,5.00
2019-04-25T04:28:24.007Z,6.75
2019-04-25T04:33:32.395Z,4.00
2019-04-25T04:38:35.895Z,3.50
2019-04-25T04:43:39.926Z,4.00
2019-04-25T04:48:43.991Z,2.75
2019-04-25T04:53:47.996Z,4.00
2019-04-25T04:58:51.984Z,5.50
2019-04-25T05:04:06.391Z,3.75
2019-04-25T05:09:20.740Z,3.20
2019-04-25T05:14:26.640Z,2.80
2019-04-25T05:19:30.432Z,3.75
2019-04-25T05:24:34.431Z,2.40
2019-04-25T05:29:38.846Z,2.00
2019-04-25T05:34:44.113Z,2.00
2019-04-25T05:39:48.758Z,4.20
2019-04-25T05:44:54.100Z,2.25
2019-04-25T05:49:58.198Z,0.00
2019-04-25T05:55:03.885Z,0.00
2019-04-25T06:00:10.040Z,0.00
2019-04-25T06:05:14.275Z,1.00
2019-04-25T06:10:37.332Z,0.60
2019-04-25T06:15:43.356Z,1.00
2019-04-25T06:20:47.548Z,1.00
2019-04-25T06:25:51.621Z,3.00
2019-04-25T06:30:55.771Z,0.00
2019-04-25T06:35:59.801Z,1.50
2019-04-25T06:41:03.977Z,0.00
2019-04-25T06:46:43.987Z,0.00
2019-04-25T06:51:52.176Z,1.00
2019-04-25T06:56:56.378Z,0.00
2019-04-25T07:02:00.487Z,1.50
2019-04-25T07:07:12.377Z,0.80
2019-04-25T07:12:10.628Z,2.00
2019-04-25T07:17:14.750Z,2.00
2019-04-25T07:22:18.860Z,0.00
2019-04-25T07:27:36.885Z,2.25
2019-04-25T07:32:48.076Z,1.00
2019-04-25T07:37:52.144Z,0.60
2019-04-25T07:42:56.259Z,0.80
2019-04-25T07:48:00.393Z,0.20
2019-04-25T07:53:05.743Z,1.00
2019-04-25T07:58:10.092Z,0.00
2019-04-25T08:03:15.455Z,0.50
2019-04-25T08:08:19.688Z,0.00
2019-04-25T08:13:24.831Z,1.25
2019-04-25T08:18:30.207Z,0.00
2019-04-25T08:23:37.740Z,0.40
2019-04-25T08:28:54.051Z,1.75
2019-04-25T08:33:46.760Z,0.00
2019-04-25T08:38:50.891Z,0.00
2019-04-25T08:43:54.897Z,0.50
2019-04-25T08:49:07.647Z,0.00
2019-04-25T08:54:31.979Z,1.00
2019-04-25T08:59:52.472Z,0.00
2019-04-25T09:05:14.376Z,0.00
2019-04-25T09:10:18.510Z,0.20
2019-04-25T09:15:23.981Z,0.00
2019-04-25T09:20:28.445Z,0.00
2019-04-25T09:25:34.522Z,0.00
2019-04-25T09:30:38.497Z,0.00
2019-04-25T09:35:42.562Z,0.00
2019-04-25T09:40:48.320Z,0.20
2019-04-25T09:46:04.759Z,0.00
2019-04-25T09:51:28.527Z,0.00
2019-04-25T09:56:40.479Z,0.80
2019-04-25T10:01:48.255Z,0.00
2019-04-25T10:06:53.499Z,0.80
2019-04-25T10:11:57.821Z,0.00
2019-04-25T10:17:03.683Z,1.00
2019-04-25T10:22:07.985Z,0.00
2019-04-25T10:27:13.880Z,0.00
2019-04-25T10:32:18.173Z,0.00
2019-04-25T10:37:22.308Z,0.00
2019-04-25T10:42:26.490Z,0.20
2019-04-25T10:47:30.938Z,0.00
2019-04-25T10:52:35.101Z,0.00
2019-04-25T10:57:39.163Z,0.40
2019-04-25T11:02:45.491Z,1.50
2019-04-25T11:07:49.661Z,0.00
2019-04-25T11:12:55.168Z,0.00
2019-04-25T11:17:59.293Z,0.00
2019-04-25T11:23:03.869Z,0.00
2019-04-25T11:28:10.343Z,0.00
2019-04-25T11:33:14.532Z,0.40
2019-04-25T11:38:30.856Z,1.00
2019-04-25T11:43:35.680Z,0.00
2019-04-25T11:48:39.919Z,0.00
2019-04-25T11:53:45.102Z,1.00
2019-04-25T11:58:50.654Z,0.00
2019-04-25T12:03:56.082Z,0.50
2019-04-25T12:09:00.258Z,0.50
2019-04-25T12:14:04.434Z,0.00
2019-04-25T12:19:08.582Z,0.00
2019-04-25T12:24:13.697Z,1.00
2019-04-25T12:29:17.914Z,0.00
2019-04-25T12:34:22.069Z,0.00
2019-04-25T12:39:26.148Z,0.00
2019-04-25T12:44:50.830Z,0.00
2019-04-25T12:49:56.027Z,0.00
2019-04-25T12:55:00.195Z,0.00
2019-04-25T13:00:04.692Z,0.00
2019-04-25T13:05:08.844Z,0.00
2019-04-25T13:10:15.318Z,0.00
2019-04-25T13:15:19.412Z,0.00
2019-04-25T13:20:23.413Z,0.00
2019-04-25T13:25:27.965Z,0.00
2019-04-25T13:30:59.804Z,0.00
2019-04-25T13:36:04.030Z,0.00
2019-04-25T13:41:08.404Z,0.00
2019-04-25T13:46:15.852Z,0.80
2019-04-25T13:51:18.371Z,0.00
2019-04-25T13:56:25.085Z,1.00
2019-04-25T14:01:28.434Z,0.00
2019-04-25T14:06:32.559Z,0.00
2019-04-25T14:11:36.572Z,0.00
2019-04-25T14:17:07.100Z,0.50
2019-04-25T14:22:11.418Z,0.00
2019-04-25T14:27:17.622Z,1.40
2019-04-25T14:32:24.217Z,1.00
2019-04-25T14:37:30.240Z,1.25
2019-04-25T14:42:33.275Z,0.00
2019-04-25T14:47:37.259Z,0.00
2019-04-25T14:52:41.592Z,0.00
2019-04-25T14:57:45.625Z,0.00
2019-04-25T15:02:49.850Z,0.00
2019-04-25T15:07:53.974Z,0.00
2019-04-25T15:12:58.141Z,0.60
2019-04-25T15:18:02.223Z,0.00
2019-04-25T15:23:06.388Z,1.00
2019-04-25T15:28:10.412Z,0.80
2019-04-25T15:33:14.689Z,0.00
2019-04-25T15:38:25.245Z,1.00
2019-04-25T15:43:48.301Z,0.00
2019-04-25T15:48:52.302Z,0.00
2019-04-25T15:53:56.312Z,0.00
2019-04-25T15:59:00.360Z,0.00
2019-04-25T16:04:04.592Z,2.50
2019-04-25T16:09:10.562Z,6.75
2019-04-25T16:14:14.754Z,6.00
2019-04-25T16:19:18.844Z,8.75
2019-04-25T16:24:22.960Z,5.25
2019-04-25T16:29:27.730Z,4.00
2019-04-25T16:34:32.131Z,4.25
2019-04-25T16:39:37.923Z,5.00
2019-04-25T16:44:42.002Z,5.00
2019-04-25T16:49:46.084Z,5.25
2019-04-25T16:54:50.184Z,3.40
2019-04-25T16:59:54.275Z,4.75
2019-04-25T17:04:59.389Z,5.00
2019-04-25T17:10:03.563Z,3.80
2019-04-25T17:15:26.210Z,4.80
2019-04-25T17:20:34.382Z,5.75
2019-04-25T17:25:38.615Z,3.20
2019-04-25T17:30:44.292Z,1.50
2019-04-25T17:36:01.871Z,1.00
2019-04-25T17:41:06.036Z,2.00
2019-04-25T17:46:11.951Z,1.00
2019-04-25T17:51:15.952Z,1.00
2019-04-25T17:56:20.097Z,0.00
2019-04-25T18:01:24.525Z,1.00
2019-04-25T18:06:28.524Z,0.75
2019-04-25T18:11:32.552Z,1.00
2019-04-25T18:16:42.332Z,2.80
2019-04-25T18:21:46.597Z,0.00
2019-04-25T18:27:09.591Z,0.80
2019-04-25T18:32:13.806Z,3.20
2019-04-25T18:37:25.691Z,0.50
2019-04-25T18:42:47.734Z,1.75
2019-04-25T18:47:51.790Z,0.00
2019-04-25T18:53:17.611Z,2.00
2019-04-25T18:58:42.554Z,2.50
2019-04-25T19:03:55.253Z,0.00
2019-04-25T19:08:59.411Z,0.40
2019-04-25T19:14:03.619Z,1.00
2019-04-25T19:19:07.765Z,1.00
2019-04-25T19:24:11.817Z,1.00
2019-04-25T19:29:15.901Z,1.25
2019-04-25T19:34:19.924Z,2.00
2019-04-25T19:39:25.684Z,1.75
2019-04-25T19:44:29.865Z,1.80
2019-04-25T19:49:33.986Z,4.50
2019-04-25T19:54:40.881Z,2.00
2019-04-25T19:59:46.441Z,1.00
2019-04-25T20:04:58.191Z,1.80
2019-04-25T20:10:17.346Z,1.40
2019-04-25T20:15:21.455Z,2.00
2019-04-25T20:20:25.630Z,2.00
2019-04-25T20:25:29.655Z,3.00
2019-04-25T20:30:33.660Z,1.25
2019-04-25T20:35:37.748Z,1.00
2019-04-25T20:40:41.854Z,1.00
2019-04-25T20:45:46.857Z,1.25
2019-04-25T20:50:52.466Z,0.25
2019-04-25T20:55:57.090Z,3.00
2019-04-25T21:01:02.846Z,1.50
2019-04-25T21:06:13.351Z,2.00
2019-04-25T21:11:17.375Z,0.00
2019-04-25T21:16:39.385Z,2.50
2019-04-25T21:21:43.491Z,1.00
2019-04-25T21:26:47.516Z,2.00
2019-04-25T21:31:52.520Z,1.25
2019-04-25T21:36:56.638Z,1.00
2019-04-25T21:42:08.868Z,1.25
2019-04-25T21:47:13.304Z,0.00
2019-04-25T21:52:17.577Z,2.25
2019-04-25T21:57:21.949Z,0.00
2019-04-25T22:02:26.579Z,1.00
2019-04-25T22:07:30.858Z,0.25
2019-04-25T22:12:35.141Z,3.20
2019-04-25T22:17:40.231Z,1.00
2019-04-25T22:22:44.375Z,1.80
2019-04-25T22:27:48.960Z,0.00
2019-04-25T22:33:01.497Z,0.00
2019-04-25T22:38:06.364Z,1.00
2019-04-25T22:43:11.998Z,1.50
2019-04-25T22:48:17.916Z,1.00
2019-04-25T22:53:25.085Z,0.40
2019-04-25T22:58:28.074Z,0.00
2019-04-25T23:03:38.088Z,0.60
2019-04-25T23:08:42.149Z,0.80
2019-04-25T23:13:46.208Z,1.50
2019-04-25T23:18:50.412Z,0.00
2019-04-25T23:23:54.516Z,1.00
2019-04-25T23:28:59.415Z,0.00
2019-04-25T23:34:04.493Z,1.00
2019-04-25T23:39:11.243Z,0.00
2019-04-25T23:44:16.177Z,0.00
2019-04-25T23:49:20.615Z,0.00
2019-04-25T23:54:25.111Z,0.75
2019-04-25T23:59:29.471Z,0.00
